• Join FlightAware (Why Join?)
  • Login
  • US Flag 
04:08PM EDT


 

Airport Tracker/Info


-or-


 

Live Flight TrackerFlight Track Log ✈ DAL110 ✈ 08-May-2013 ✈ SAEZ / EZE - KATL

Flight Track Log - Related Links

Times and Time Zones

All times are in EDT time to prevent confusion due to time zone crossing. See the DAL110 flight status page for this flight to view local times or setup timezone preferences in your user account.

Time Position Orientation Groundspeed Altitude Reporting Facility
EDT Latitude Longitude Course Direction KTS MPH feet Rate Location/Type
07:38PM -34.7094 -58.5821 339° North  Level FlightAware Approximate
07:39PM -34.5954 -58.6352 339° North  Level FlightAware Approximate
07:40PM -34.4813 -58.6881 339° North  Level FlightAware Approximate
07:41PM -34.3672 -58.7409 339° North  Level FlightAware Approximate
07:42PM -34.2530 -58.7936 339° North  Level FlightAware Approximate
07:43PM -34.1389 -58.8461 339° North  Level FlightAware Approximate
07:44PM -34.0247 -58.8985 339° North  Level FlightAware Approximate
07:45PM -33.9105 -58.9507 339° North  Level FlightAware Approximate
07:46PM -33.7963 -59.0029 339° North  Level FlightAware Approximate
07:47PM -33.6820 -59.0548 339° North  Level FlightAware Approximate
07:48PM -33.5677 -59.1067 339° North  Level FlightAware Approximate
07:49PM -33.4534 -59.1584 339° North  Level FlightAware Approximate
07:50PM -33.3391 -59.2099 339° North  Level FlightAware Approximate
07:51PM -33.2223 -59.2626 339° North  Level FlightAware Approximate
07:52PM -33.1068 -59.3152 339° North  Level FlightAware Approximate
07:53PM -32.9913 -59.3677 339° North  Level FlightAware Approximate
07:54PM -32.8758 -59.4200 339° North  Level FlightAware Approximate
07:55PM -32.7603 -59.4721 339° North  Level FlightAware Approximate
07:56PM -32.6447 -59.5242 339° North  Level FlightAware Approximate
07:57PM -32.5291 -59.5761 339° North  Level FlightAware Approximate
07:58PM -32.4135 -59.6278 339° North  Level FlightAware Approximate
07:59PM -32.2979 -59.6795 339° North  Level FlightAware Approximate
08:00PM -32.1822 -59.7310 339° North  Level FlightAware Approximate
08:01PM -32.0665 -59.7823 339° North  Level FlightAware Approximate
08:02PM -31.9508 -59.8336 339° North  Level FlightAware Approximate
08:03PM -31.8351 -59.8847 339° North  Level FlightAware Approximate
08:04PM -31.7194 -59.9357 339° North  Level FlightAware Approximate
08:05PM -31.6037 -59.9865 339° North  Level FlightAware Approximate
08:06PM -31.4879 -60.0373 340° North  Level FlightAware Approximate
08:07PM -31.3721 -60.0879 340° North  Level FlightAware Approximate
08:08PM -31.2563 -60.1383 340° North  Level FlightAware Approximate
08:09PM -31.1405 -60.1887 340° North  Level FlightAware Approximate
08:10PM -31.0246 -60.2389 340° North  Level FlightAware Approximate
08:11PM -30.9087 -60.2890 340° North  Level FlightAware Approximate
08:12PM -30.7929 -60.3390 340° North  Level FlightAware Approximate
08:13PM -30.6769 -60.3889 340° North  Level FlightAware Approximate
08:14PM -30.5610 -60.4386 340° North  Level FlightAware Approximate
08:15PM -30.4451 -60.4883 340° North  Level FlightAware Approximate
08:16PM -30.3291 -60.5378 340° North  Level FlightAware Approximate
08:17PM -30.2131 -60.5872 340° North  Level FlightAware Approximate
08:18PM -30.0971 -60.6365 340° North  Level FlightAware Approximate
08:19PM -29.9811 -60.6856 340° North  Level FlightAware Approximate
08:20PM -29.8650 -60.7347 340° North  Level FlightAware Approximate
08:21PM -29.7490 -60.7836 340° North  Level FlightAware Approximate
08:22PM -29.6329 -60.8325 340° North  Level FlightAware Approximate
08:23PM -29.5168 -60.8812 340° North  Level FlightAware Approximate
08:24PM -29.4007 -60.9298 340° North  Level FlightAware Approximate
08:25PM -29.2846 -60.9782 340° North  Level FlightAware Approximate
08:26PM -29.1684 -61.0266 340° North  Level FlightAware Approximate
08:27PM -29.0523 -61.0749 340° North  Level FlightAware Approximate
08:28PM -28.9361 -61.1231 340° North  Level FlightAware Approximate
08:29PM -28.8199 -61.1711 340° North  Level FlightAware Approximate
08:30PM -28.7037 -61.2191 340° North  Level FlightAware Approximate
08:31PM -28.5874 -61.2669 340° North  Level FlightAware Approximate
08:32PM -28.4712 -61.3146 340° North  Level FlightAware Approximate
08:33PM -28.3549 -61.3623 340° North  Level FlightAware Approximate
08:34PM -28.2386 -61.4098 340° North  Level FlightAware Approximate
08:35PM -28.1223 -61.4572 340° North  Level FlightAware Approximate
08:36PM -28.0060 -61.5045 340° North  Level FlightAware Approximate
08:37PM -27.8897 -61.5517 340° North  Level FlightAware Approximate
08:38PM -27.7733 -61.5989 340° North  Level FlightAware Approximate
08:39PM -27.6570 -61.6459 340° North  Level FlightAware Approximate
08:40PM -27.5406 -61.6928 340° North  Level FlightAware Approximate
08:41PM -27.4242 -61.7396 340° North  Level FlightAware Approximate
08:42PM -27.3078 -61.7863 340° North  Level FlightAware Approximate
08:43PM -27.1914 -61.8329 340° North  Level FlightAware Approximate
08:44PM -27.0749 -61.8794 340° North  Level FlightAware Approximate
08:45PM -26.9585 -61.9259 340° North  Level FlightAware Approximate
08:46PM -26.8420 -61.9722 340° North  Level FlightAware Approximate
08:47PM -26.7255 -62.0184 340° North  Level FlightAware Approximate
08:48PM -26.6090 -62.0646 341° North  Level FlightAware Approximate
08:49PM -26.4925 -62.1106 341° North  Level FlightAware Approximate
08:50PM -26.3759 -62.1566 341° North  Level FlightAware Approximate
08:51PM -26.2594 -62.2024 341° North  Level FlightAware Approximate
08:52PM -26.1428 -62.2482 341° North  Level FlightAware Approximate
08:53PM -26.0263 -62.2939 341° North  Level FlightAware Approximate
08:54PM -25.9097 -62.3394 341° North  Level FlightAware Approximate
08:55PM -25.7931 -62.3849 341° North  Level FlightAware Approximate
08:56PM -25.6764 -62.4303 341° North  Level FlightAware Approximate
08:57PM -25.5598 -62.4757 341° North  Level FlightAware Approximate
08:58PM -25.4432 -62.5209 341° North  Level FlightAware Approximate
08:59PM -25.3265 -62.5660 341° North  Level FlightAware Approximate
09:00PM -25.2098 -62.6111 341° North  Level FlightAware Approximate
09:01PM -25.0931 -62.6561 341° North  Level FlightAware Approximate
09:02PM -24.9764 -62.7009 341° North  Level FlightAware Approximate
09:03PM -24.8597 -62.7457 341° North  Level FlightAware Approximate
09:04PM -24.7430 -62.7904 341° North  Level FlightAware Approximate
09:05PM -24.6263 -62.8351 341° North  Level FlightAware Approximate
09:06PM -24.5095 -62.8796 341° North  Level FlightAware Approximate
09:07PM -24.3927 -62.9241 341° North  Level FlightAware Approximate
09:08PM -24.2760 -62.9685 341° North  Level FlightAware Approximate
09:09PM -24.1592 -63.0128 341° North  Level FlightAware Approximate
09:10PM -24.0424 -63.0570 341° North  Level FlightAware Approximate
09:11PM -23.9255 -63.1011 341° North  Level FlightAware Approximate
09:12PM -23.8087 -63.1452 341° North  Level FlightAware Approximate
09:13PM -23.6919 -63.1892 341° North  Level FlightAware Approximate
09:14PM -23.5750 -63.2331 341° North  Level FlightAware Approximate
09:15PM -23.4581 -63.2769 341° North  Level FlightAware Approximate
09:16PM -23.3413 -63.3206 341° North  Level FlightAware Approximate
09:17PM -23.2244 -63.3643 341° North  Level FlightAware Approximate
09:18PM -23.1075 -63.4079 341° North  Level FlightAware Approximate
09:19PM -22.9905 -63.4514 341° North  Level FlightAware Approximate
09:20PM -22.8736 -63.4948 341° North  Level FlightAware Approximate
09:21PM -22.7567 -63.5382 341° North  Level FlightAware Approximate
09:22PM -22.6397 -63.5815 341° North  Level FlightAware Approximate
09:23PM -22.5228 -63.6247 341° North  Level FlightAware Approximate
09:24PM -22.4058 -63.6679 341° North  Level FlightAware Approximate
09:25PM -22.2882 -63.7112 341° North  Level FlightAware Approximate
09:26PM -22.1706 -63.7544 341° North  Level FlightAware Approximate
09:27PM -22.0530 -63.7975 341° North  Level FlightAware Approximate
09:28PM -21.9354 -63.8406 341° North  Level FlightAware Approximate
09:29PM -21.8178 -63.8836 341° North  Level FlightAware Approximate
09:30PM -21.7002 -63.9265 341° North  Level FlightAware Approximate
09:31PM -21.5825 -63.9694 341° North  Level FlightAware Approximate
09:32PM -21.4648 -64.0122 341° North  Level FlightAware Approximate
09:33PM -21.3472 -64.0549 341° North  Level FlightAware Approximate
09:34PM -21.2295 -64.0975 341° North  Level FlightAware Approximate
09:35PM -21.1118 -64.1401 341° North  Level FlightAware Approximate
09:36PM -20.9941 -64.1826 341° North  Level FlightAware Approximate
09:37PM -20.8764 -64.2251 341° North  Level FlightAware Approximate
09:38PM -20.7587 -64.2675 341° North  Level FlightAware Approximate
09:39PM -20.6409 -64.3098 341° North  Level FlightAware Approximate
09:40PM -20.5232 -64.3521 341° North  Level FlightAware Approximate
09:41PM -20.4055 -64.3942 341° North  Level FlightAware Approximate
09:42PM -20.2877 -64.4364 341° North  Level FlightAware Approximate
09:43PM -20.1699 -64.4784 341° North  Level FlightAware Approximate
09:44PM -20.0522 -64.5204 341° North  Level FlightAware Approximate
09:45PM -19.9344 -64.5623 341° North  Level FlightAware Approximate
09:46PM -19.8166 -64.6042 342° North  Level FlightAware Approximate
09:47PM -19.6987 -64.6460 342° North  Level FlightAware Approximate
09:48PM -19.5809 -64.6878 342° North  Level FlightAware Approximate
09:49PM -19.4631 -64.7295 342° North  Level FlightAware Approximate
09:50PM -19.3453 -64.7711 342° North  Level FlightAware Approximate
09:51PM -19.2274 -64.8127 342° North  Level FlightAware Approximate
09:52PM -19.1096 -64.8542 342° North  Level FlightAware Approximate
09:53PM -18.9917 -64.8956 342° North  Level FlightAware Approximate
09:54PM -18.8738 -64.9370 342° North  Level FlightAware Approximate
09:55PM -18.7559 -64.9783 342° North  Level FlightAware Approximate
09:56PM -18.6380 -65.0196 342° North  Level FlightAware Approximate
09:57PM -18.5201 -65.0608 342° North  Level FlightAware Approximate
09:58PM -18.4022 -65.1020 342° North  Level FlightAware Approximate
09:59PM -18.2843 -65.1431 342° North  Level FlightAware Approximate
10:00PM -18.1663 -65.1842 342° North  Level FlightAware Approximate
10:01PM -18.0484 -65.2251 342° North  Level FlightAware Approximate
10:02PM -17.9305 -65.2661 342° North  Level FlightAware Approximate
10:03PM -17.8125 -65.3070 342° North  Level FlightAware Approximate
10:04PM -17.6945 -65.3478 342° North  Level FlightAware Approximate
10:05PM -17.5765 -65.3886 342° North  Level FlightAware Approximate
10:06PM -17.4586 -65.4293 342° North  Level FlightAware Approximate
10:07PM -17.3406 -65.4699 342° North  Level FlightAware Approximate
10:08PM -17.2226 -65.5106 342° North  Level FlightAware Approximate
10:09PM -17.1046 -65.5511 342° North  Level FlightAware Approximate
10:10PM -16.9865 -65.5916 342° North  Level FlightAware Approximate
10:11PM -16.8685 -65.6321 342° North  Level FlightAware Approximate
10:12PM -16.7505 -65.6725 342° North  Level FlightAware Approximate
10:13PM -16.6325 -65.7129 342° North  Level FlightAware Approximate
10:14PM -16.5144 -65.7532 342° North  Level FlightAware Approximate
10:15PM -16.3964 -65.7934 342° North  Level FlightAware Approximate
10:16PM -16.2783 -65.8336 342° North  Level FlightAware Approximate
10:17PM -16.1602 -65.8738 342° North  Level FlightAware Approximate
10:18PM -16.0422 -65.9139 342° North  Level FlightAware Approximate
10:19PM -15.9241 -65.9540 342° North  Level FlightAware Approximate
10:20PM -15.8060 -65.9940 342° North  Level FlightAware Approximate
10:21PM -15.6879 -66.0340 342° North  Level FlightAware Approximate
10:22PM -15.5698 -66.0739 342° North  Level FlightAware Approximate
10:23PM -15.4517 -66.1138 342° North  Level FlightAware Approximate
10:24PM -15.3335 -66.1537 342° North  Level FlightAware Approximate
10:25PM -15.2154 -66.1935 342° North  Level FlightAware Approximate
10:26PM -15.0973 -66.2332 342° North  Level FlightAware Approximate
10:27PM -14.9791 -66.2729 342° North  Level FlightAware Approximate
10:28PM -14.8610 -66.3126 342° North  Level FlightAware Approximate
10:29PM -14.7428 -66.3522 342° North  Level FlightAware Approximate
10:30PM -14.6247 -66.3917 342° North  Level FlightAware Approximate
10:31PM -14.5065 -66.4313 342° North  Level FlightAware Approximate
10:32PM -14.3883 -66.4708 342° North  Level FlightAware Approximate
10:33PM -14.2701 -66.5102 342° North  Level FlightAware Approximate
10:34PM -14.1519 -66.5496 342° North  Level FlightAware Approximate
10:35PM -14.0337 -66.5890 342° North  Level FlightAware Approximate
10:36PM -13.9155 -66.6283 342° North  Level FlightAware Approximate
10:37PM -13.7973 -66.6676 342° North  Level FlightAware Approximate
10:38PM -13.6791 -66.7069 342° North  Level FlightAware Approximate
10:39PM -13.5609 -66.7461 342° North  Level FlightAware Approximate
10:40PM -13.4427 -66.7852 342° North  Level FlightAware Approximate
10:41PM -13.3244 -66.8244 342° North  Level FlightAware Approximate
10:42PM -13.2062 -66.8635 342° North  Level FlightAware Approximate
10:43PM -13.0880 -66.9025 342° North  Level FlightAware Approximate
10:44PM -12.9697 -66.9415 342° North  Level FlightAware Approximate
10:45PM -12.8514 -66.9805 342° North  Level FlightAware Approximate
10:46PM -12.7346 -67.0190 342° North  Level FlightAware Approximate
10:47PM -12.6177 -67.0574 342° North  Level FlightAware Approximate
10:48PM -12.5008 -67.0959 342° North  Level FlightAware Approximate
10:49PM -12.3839 -67.1342 342° North  Level FlightAware Approximate
10:50PM -12.2670 -67.1726 342° North  Level FlightAware Approximate
10:51PM -12.1501 -67.2109 342° North  Level FlightAware Approximate
10:52PM -12.0332 -67.2492 342° North  Level FlightAware Approximate
10:53PM -11.9163 -67.2874 342° North  Level FlightAware Approximate
10:54PM -11.7993 -67.3256 342° North  Level FlightAware Approximate
10:55PM -11.6824 -67.3638 342° North  Level FlightAware Approximate
10:56PM -11.5655 -67.4020 342° North  Level FlightAware Approximate
10:57PM -11.4485 -67.4401 342° North  Level FlightAware Approximate
10:58PM -11.3316 -67.4782 342° North  Level FlightAware Approximate
10:59PM -11.2146 -67.5162 342° North  Level FlightAware Approximate
11:00PM -11.0977 -67.5542 342° North  Level FlightAware Approximate
11:01PM -10.9807 -67.5922 342° North  Level FlightAware Approximate
11:02PM -10.8638 -67.6302 342° North  Level FlightAware Approximate
11:03PM -10.7468 -67.6681 342° North  Level FlightAware Approximate
11:04PM -10.6298 -67.7060 342° North  Level FlightAware Approximate
11:05PM -10.5128 -67.7439 342° North  Level FlightAware Approximate
11:06PM -10.3959 -67.7817 342° North  Level FlightAware Approximate
11:07PM -10.2789 -67.8195 342° North  Level FlightAware Approximate
11:08PM -10.1619 -67.8573 342° North  Level FlightAware Approximate
11:09PM -10.0449 -67.8951 342° North  Level FlightAware Approximate
11:10PM -9.9279 -67.9328 342° North  Level FlightAware Approximate
11:11PM -9.8109 -67.9705 342° North  Level FlightAware Approximate
11:12PM -9.6939 -68.0082 342° North  Level FlightAware Approximate
11:13PM -9.5769 -68.0459 342° North  Level FlightAware Approximate
11:14PM -9.4599 -68.0835 342° North  Level FlightAware Approximate
11:15PM -9.3429 -68.1211 342° North  Level FlightAware Approximate
11:16PM -9.2258 -68.1587 342° North  Level FlightAware Approximate
11:17PM -9.1088 -68.1962 342° North  Level FlightAware Approximate
11:18PM -8.9918 -68.2338 342° North  Level FlightAware Approximate
11:19PM -8.8748 -68.2713 342° North  Level FlightAware Approximate
11:20PM -8.7577 -68.3087 342° North  Level FlightAware Approximate
11:21PM -8.6407 -68.3462 342° North  Level FlightAware Approximate
11:22PM -8.5236 -68.3836 342° North  Level FlightAware Approximate
11:23PM -8.4066 -68.4210 342° North  Level FlightAware Approximate
11:24PM -8.2895 -68.4584 342° North  Level FlightAware Approximate
11:25PM -8.1725 -68.4958 342° North  Level FlightAware Approximate
11:26PM -8.0554 -68.5331 342° North  Level FlightAware Approximate
11:27PM -7.9384 -68.5704 342° North  Level FlightAware Approximate
11:28PM -7.8213 -68.6077 342° North  Level FlightAware Approximate
11:29PM -7.7042 -68.6450 342° North  Level FlightAware Approximate
11:30PM -7.5871 -68.6823 342° North  Level FlightAware Approximate
11:31PM -7.4701 -68.7195 342° North  Level FlightAware Approximate
11:32PM -7.3530 -68.7568 343° North  Level FlightAware Approximate
11:33PM -7.2359 -68.7940 343° North  Level FlightAware Approximate
11:34PM -7.1188 -68.8311 343° North  Level FlightAware Approximate
11:35PM -7.0017 -68.8683 343° North  Level FlightAware Approximate
11:36PM -6.8847 -68.9054 343° North  Level FlightAware Approximate
11:37PM -6.7676 -68.9426 343° North  Level FlightAware Approximate
11:38PM -6.6505 -68.9797 343° North  Level FlightAware Approximate
11:39PM -6.5334 -69.0167 343° North  Level FlightAware Approximate
11:40PM -6.4163 -69.0538 343° North  Level FlightAware Approximate
11:41PM -6.2992 -69.0909 343° North  Level FlightAware Approximate
11:42PM -6.1821 -69.1279 343° North  Level FlightAware Approximate
11:43PM -6.0649 -69.1649 343° North  Level FlightAware Approximate
11:44PM -5.9478 -69.2019 343° North  Level FlightAware Approximate
11:45PM -5.8307 -69.2389 343° North  Level FlightAware Approximate
11:46PM -5.7136 -69.2759 343° North  Level FlightAware Approximate
11:47PM -5.5965 -69.3129 343° North  Level FlightAware Approximate
11:48PM -5.4794 -69.3498 343° North  Level FlightAware Approximate
11:49PM -5.3622 -69.3867 343° North  Level FlightAware Approximate
11:50PM -5.2451 -69.4236 343° North  Level FlightAware Approximate
11:51PM -5.1280 -69.4605 343° North  Level FlightAware Approximate
11:52PM -5.0108 -69.4974 343° North  Level FlightAware Approximate
11:53PM -4.8937 -69.5343 343° North  Level FlightAware Approximate
11:54PM -4.7754 -69.5715 343° North  Level FlightAware Approximate
11:55PM -4.6571 -69.6087 343° North  Level FlightAware Approximate
11:56PM -4.5388 -69.6460 343° North  Level FlightAware Approximate
11:57PM -4.4204 -69.6832 343° North  Level FlightAware Approximate
11:58PM -4.3021 -69.7203 343° North  Level FlightAware Approximate
11:59PM -4.1838 -69.7575 343° North  Level FlightAware Approximate
12:00AM -4.0655 -69.7947 343° North  Level FlightAware Approximate
12:01AM -3.9471 -69.8318 343° North  Level FlightAware Approximate
12:02AM -3.8288 -69.8689 343° North  Level FlightAware Approximate
12:03AM -3.7104 -69.9061 343° North  Level FlightAware Approximate
12:04AM -3.5921 -69.9432 343° North  Level FlightAware Approximate
12:05AM -3.4738 -69.9803 343° North  Level FlightAware Approximate
12:06AM -3.3554 -70.0174 343° North  Level FlightAware Approximate
12:07AM -3.2371 -70.0545 343° North  Level FlightAware Approximate
12:08AM -3.1188 -70.0916 343° North  Level FlightAware Approximate
12:09AM -3.0004 -70.1287 343° North  Level FlightAware Approximate
12:10AM -2.8821 -70.1657 343° North  Level FlightAware Approximate
12:11AM -2.7637 -70.2028 343° North  Level FlightAware Approximate
12:12AM -2.6454 -70.2398 343° North  Level FlightAware Approximate
12:13AM -2.5270 -70.2769 343° North  Level FlightAware Approximate
12:14AM -2.4087 -70.3139 343° North  Level FlightAware Approximate
12:15AM -2.2903 -70.3510 343° North  Level FlightAware Approximate
12:16AM -2.1720 -70.3880 343° North  Level FlightAware Approximate
12:17AM -2.0536 -70.4250 343° North  Level FlightAware Approximate
12:18AM -1.9353 -70.4620 343° North  Level FlightAware Approximate
12:19AM -1.8169 -70.4990 343° North  Level FlightAware Approximate
12:20AM -1.6986 -70.5360 343° North  Level FlightAware Approximate
12:21AM -1.5802 -70.5730 343° North  Level FlightAware Approximate
12:22AM -1.4619 -70.6100 343° North  Level FlightAware Approximate
12:23AM -1.3435 -70.6470 343° North  Level FlightAware Approximate
12:24AM -1.2251 -70.6840 343° North  Level FlightAware Approximate
12:25AM -1.1068 -70.7210 343° North  Level FlightAware Approximate
12:26AM -0.9884 -70.7580 343° North  Level FlightAware Approximate
12:27AM -0.8701 -70.7950 343° North  Level FlightAware Approximate
12:28AM -0.7517 -70.8319 343° North  Level FlightAware Approximate
12:29AM -0.6333 -70.8689 343° North  Level FlightAware Approximate
12:30AM -0.5150 -70.9059 343° North  Level FlightAware Approximate
12:31AM -0.3966 -70.9428 343° North  Level FlightAware Approximate
12:32AM -0.2783 -70.9798 343° North  Level FlightAware Approximate
12:33AM -0.1599 -71.0168 343° North  Level FlightAware Approximate
12:34AM -0.0415 -71.0538 343° North  Level FlightAware Approximate
12:35AM 0.0768 -71.0907 343° North  Level FlightAware Approximate
12:36AM 0.1952 -71.1277 343° North  Level FlightAware Approximate
12:37AM 0.3135 -71.1647 343° North  Level FlightAware Approximate
12:38AM 0.4319 -71.2016 343° North  Level FlightAware Approximate
12:39AM 0.5503 -71.2386 343° North  Level FlightAware Approximate
12:40AM 0.6686 -71.2756 343° North  Level FlightAware Approximate
12:41AM 0.7870 -71.3126 343° North  Level FlightAware Approximate
12:42AM 0.9054 -71.3495 343° North  Level FlightAware Approximate
12:43AM 1.0237 -71.3865 343° North  Level FlightAware Approximate
12:44AM 1.1421 -71.4235 343° North  Level FlightAware Approximate
12:45AM 1.2604 -71.4605 343° North  Level FlightAware Approximate
12:46AM 1.3788 -71.4975 343° North  Level FlightAware Approximate
12:47AM 1.4971 -71.5345 343° North  Level FlightAware Approximate
12:48AM 1.6155 -71.5715 343° North  Level FlightAware Approximate
12:49AM 1.7339 -71.6085 343° North  Level FlightAware Approximate
12:50AM 1.8522 -71.6455 343° North  Level FlightAware Approximate
12:51AM 1.9706 -71.6825 343° North  Level FlightAware Approximate
12:52AM 2.0889 -71.7195 343° North  Level FlightAware Approximate
12:53AM 2.2073 -71.7566 343° North  Level FlightAware Approximate
12:54AM 2.3256 -71.7936 343° North  Level FlightAware Approximate
12:55AM 2.4440 -71.8307 343° North  Level FlightAware Approximate
12:56AM 2.5623 -71.8677 343° North  Level FlightAware Approximate
12:57AM 2.6806 -71.9048 343° North  Level FlightAware Approximate
12:58AM 2.7990 -71.9418 343° North  Level FlightAware Approximate
12:59AM 2.9173 -71.9789 343° North  Level FlightAware Approximate
01:00AM 3.0357 -72.0160 343° North  Level FlightAware Approximate
01:01AM 3.1540 -72.0531 343° North  Level FlightAware Approximate
01:02AM 3.2724 -72.0902 343° North  Level FlightAware Approximate
01:03AM 3.3907 -72.1273 343° North  Level FlightAware Approximate
01:04AM 3.5090 -72.1644 343° North  Level FlightAware Approximate
01:05AM 3.6274 -72.2015 343° North  Level FlightAware Approximate
01:06AM 3.7457 -72.2387 343° North  Level FlightAware Approximate
01:07AM 3.8640 -72.2758 343° North  Level FlightAware Approximate
01:08AM 3.9824 -72.3130 343° North  Level FlightAware Approximate
01:09AM 4.1007 -72.3502 343° North  Level FlightAware Approximate
01:10AM 4.2190 -72.3873 343° North  Level FlightAware Approximate
01:11AM 4.3369 -72.4244 343° North  Level FlightAware Approximate
01:12AM 4.4549 -72.4615 343° North  Level FlightAware Approximate
01:13AM 4.5728 -72.4986 343° North  Level FlightAware Approximate
01:14AM 4.6907 -72.5357 342° North  Level FlightAware Approximate
01:15AM 4.8085 -72.5731 342° North  Level FlightAware Approximate
01:16AM 4.9263 -72.6105 342° North  Level FlightAware Approximate
01:17AM 5.0441 -72.6480 342° North  Level FlightAware Approximate
01:18AM 5.1620 -72.6854 342° North  Level FlightAware Approximate
01:19AM 5.2798 -72.7229 342° North  Level FlightAware Approximate
01:20AM 5.3976 -72.7604 342° North  Level FlightAware Approximate
01:21AM 5.5154 -72.7979 342° North  Level FlightAware Approximate
01:22AM 5.6332 -72.8354 342° North  Level FlightAware Approximate
01:23AM 5.7510 -72.8730 342° North  Level FlightAware Approximate
01:24AM 5.8688 -72.9105 342° North  Level FlightAware Approximate
01:25AM 5.9866 -72.9481 342° North  Level FlightAware Approximate
01:26AM 6.1044 -72.9857 342° North  Level FlightAware Approximate
01:27AM 6.2222 -73.0233 342° North  Level FlightAware Approximate
01:28AM 6.3400 -73.0609 342° North  Level FlightAware Approximate
01:29AM 6.4578 -73.0985 342° North  Level FlightAware Approximate
01:30AM 6.5756 -73.1362 342° North  Level FlightAware Approximate
01:31AM 6.6933 -73.1739 342° North  Level FlightAware Approximate
01:32AM 6.8111 -73.2116 342° North  Level FlightAware Approximate
01:33AM 6.9289 -73.2493 342° North  Level FlightAware Approximate
01:34AM 7.0466 -73.2871 342° North  Level FlightAware Approximate
01:35AM 7.1644 -73.3249 342° North  Level FlightAware Approximate
01:36AM 7.2821 -73.3627 342° North  Level FlightAware Approximate
01:37AM 7.3999 -73.4005 342° North  Level FlightAware Approximate
01:38AM 7.5176 -73.4383 342° North  Level FlightAware Approximate
01:39AM 7.6354 -73.4762 342° North  Level FlightAware Approximate
01:40AM 7.7531 -73.5141 342° North  Level FlightAware Approximate
01:41AM 7.8709 -73.5520 342° North  Level FlightAware Approximate
01:42AM 7.9886 -73.5899 342° North  Level FlightAware Approximate
01:43AM 8.1063 -73.6278 342° North  Level FlightAware Approximate
01:44AM 8.2241 -73.6658 342° North  Level FlightAware Approximate
01:45AM 8.3418 -73.7038 342° North  Level FlightAware Approximate
01:46AM 8.4596 -73.7416 343° North  Level FlightAware Approximate
01:47AM 8.5775 -73.7790 343° North  Level FlightAware Approximate
01:48AM 8.6954 -73.8164 343° North  Level FlightAware Approximate
01:49AM 8.8133 -73.8539 343° North  Level FlightAware Approximate
01:50AM 8.9312 -73.8913 343° North  Level FlightAware Approximate
01:51AM 9.0491 -73.9288 343° North  Level FlightAware Approximate
01:52AM 9.1671 -73.9663 343° North  Level FlightAware Approximate
01:53AM 9.2850 -74.0038 343° North  Level FlightAware Approximate
01:54AM 9.4029 -74.0413 343° North  Level FlightAware Approximate
01:55AM 9.5207 -74.0789 343° North  Level FlightAware Approximate
01:56AM 9.6386 -74.1165 343° North  Level FlightAware Approximate
01:57AM 9.7565 -74.1542 343° North  Level FlightAware Approximate
01:58AM 9.8744 -74.1918 343° North  Level FlightAware Approximate
01:59AM 9.9923 -74.2295 343° North  Level FlightAware Approximate
02:00AM 10.1102 -74.2672 343° North  Level FlightAware Approximate
02:01AM 10.2280 -74.3049 343° North  Level FlightAware Approximate
02:02AM 10.3459 -74.3427 342° North  Level FlightAware Approximate
02:03AM 10.4637 -74.3807 342° North  Level FlightAware Approximate
02:04AM 10.5815 -74.4187 342° North  Level FlightAware Approximate
02:05AM 10.6993 -74.4567 342° North  Level FlightAware Approximate
02:06AM 10.8171 -74.4948 342° North  Level FlightAware Approximate
02:07AM 10.9349 -74.5329 342° North  Level FlightAware Approximate
02:08AM 11.0527 -74.5710 342° North  Level FlightAware Approximate
02:09AM 11.1704 -74.6092 342° North  Level FlightAware Approximate
02:10AM 11.2882 -74.6473 342° North  Level FlightAware Approximate
02:11AM 11.4060 -74.6855 342° North  Level FlightAware Approximate
02:12AM 11.5237 -74.7238 342° North  Level FlightAware Approximate
02:13AM 11.6415 -74.7621 342° North  Level FlightAware Approximate
02:14AM 11.7592 -74.8004 342° North  Level FlightAware Approximate
02:15AM 11.8770 -74.8387 342° North  Level FlightAware Approximate
02:16AM 11.9947 -74.8771 342° North  Level FlightAware Approximate
02:17AM 12.1125 -74.9155 342° North  Level FlightAware Approximate
02:18AM 12.2302 -74.9539 342° North  Level FlightAware Approximate
02:19AM 12.3479 -74.9924 342° North  Level FlightAware Approximate
02:20AM 12.4656 -75.0309 342° North  Level FlightAware Approximate
02:21AM 12.5834 -75.0694 342° North  Level FlightAware Approximate
02:22AM 12.7011 -75.1080 342° North  Level FlightAware Approximate
02:23AM 12.8188 -75.1466 342° North  Level FlightAware Approximate
02:24AM 12.9365 -75.1853 342° North  Level FlightAware Approximate
02:25AM 13.0546 -75.2241 342° North  Level FlightAware Approximate
02:26AM 13.1727 -75.2629 342° North  Level FlightAware Approximate
02:27AM 13.2908 -75.3016 342° North  Level FlightAware Approximate
02:28AM 13.4089 -75.3404 342° North  Level FlightAware Approximate
02:29AM 13.5270 -75.3792 342° North  Level FlightAware Approximate
02:30AM 13.6451 -75.4180 342° North  Level FlightAware Approximate
02:31AM 13.7632 -75.4569 342° North  Level FlightAware Approximate
02:32AM 13.8813 -75.4958 342° North  Level FlightAware Approximate
02:33AM 13.9994 -75.5348 342° North  Level FlightAware Approximate
02:34AM 14.1175 -75.5738 342° North  Level FlightAware Approximate
02:35AM 14.2356 -75.6128 342° North  Level FlightAware Approximate
02:36AM 14.3537 -75.6519 342° North  Level FlightAware Approximate
02:37AM 14.4717 -75.6911 342° North  Level FlightAware Approximate
02:38AM 14.5898 -75.7302 342° North  Level FlightAware Approximate
02:39AM 14.7079 -75.7694 342° North  Level FlightAware Approximate
02:40AM 14.8259 -75.8087 342° North  Level FlightAware Approximate
02:41AM 14.9439 -75.8480 342° North  Level FlightAware Approximate
02:42AM 15.0619 -75.8874 342° North  Level FlightAware Approximate
02:43AM 15.1799 -75.9270 342° North  Level FlightAware Approximate
02:44AM 15.2979 -75.9666 342° North  Level FlightAware Approximate
02:45AM 15.4158 -76.0063 342° North  Level FlightAware Approximate
02:46AM 15.5338 -76.0460 342° North  Level FlightAware Approximate
02:47AM 15.6517 -76.0857 342° North  Level FlightAware Approximate
02:48AM 15.7697 -76.1255 342° North  Level FlightAware Approximate
02:49AM 15.8876 -76.1654 342° North  Level FlightAware Approximate
02:50AM 16.0055 -76.2052 342° North  Level FlightAware Approximate
02:51AM 16.1234 -76.2452 342° North  Level FlightAware Approximate
02:52AM 16.2413 -76.2851 342° North  Level FlightAware Approximate
02:53AM 16.3592 -76.3252 342° North  Level FlightAware Approximate
02:54AM 16.4771 -76.3653 342° North  Level FlightAware Approximate
02:55AM 16.5950 -76.4054 342° North  Level FlightAware Approximate
02:56AM 16.7129 -76.4455 342° North  Level FlightAware Approximate
02:57AM 16.8307 -76.4858 342° North  Level FlightAware Approximate
02:58AM 16.9486 -76.5260 342° North  Level FlightAware Approximate
02:59AM 17.0665 -76.5664 342° North  Level FlightAware Approximate
03:00AM 17.1843 -76.6067 342° North  Level FlightAware Approximate
03:01AM 17.3021 -76.6472 342° North  Level FlightAware Approximate
03:02AM 17.4200 -76.6877 342° North  Level FlightAware Approximate
03:03AM 17.5378 -76.7282 342° North  Level FlightAware Approximate
03:04AM 17.6556 -76.7688 342° North  Level FlightAware Approximate
03:05AM 17.7734 -76.8094 342° North  Level FlightAware Approximate
03:06AM 17.8912 -76.8501 342° North  Level FlightAware Approximate
03:07AM 18.0090 -76.8908 342° North  Level FlightAware Approximate
03:08AM 18.1268 -76.9316 342° North  Level FlightAware Approximate
03:09AM 18.2445 -76.9725 342° North  Level FlightAware Approximate
03:10AM 18.3623 -77.0134 342° North  Level FlightAware Approximate
03:11AM 18.4800 -77.0544 342° North  Level FlightAware Approximate
03:12AM 18.5978 -77.0954 342° North  Level FlightAware Approximate
03:13AM 18.7155 -77.1365 342° North  Level FlightAware Approximate
03:14AM 18.8332 -77.1776 342° North  Level FlightAware Approximate
03:15AM 18.9509 -77.2188 342° North  Level FlightAware Approximate
03:16AM 19.0686 -77.2600 342° North  Level FlightAware Approximate
03:17AM 19.1863 -77.3014 342° North  Level FlightAware Approximate
03:18AM 19.3040 -77.3427 342° North  Level FlightAware Approximate
03:19AM 19.4217 -77.3842 342° North  Level FlightAware Approximate
03:20AM 19.5389 -77.4270 341° North  Level FlightAware Approximate
03:21AM 19.6559 -77.4708 341° North  Level FlightAware Approximate
03:22AM 19.7728 -77.5146 341° North  Level FlightAware Approximate
03:23AM 19.8897 -77.5585 341° North  Level FlightAware Approximate
03:24AM 20.0067 -77.6024 341° North  Level FlightAware Approximate
03:25AM 20.1243 -77.6443 341° North  Level FlightAware Approximate
03:26AM 20.2418 -77.6863 341° North  Level FlightAware Approximate
03:27AM 20.3594 -77.7283 341° North  Level FlightAware Approximate
03:28AM 20.4769 -77.7704 341° North  Level FlightAware Approximate
03:29AM 20.5945 -77.8126 341° North  Level FlightAware Approximate
03:30AM 20.7120 -77.8549 341° North  Level FlightAware Approximate
03:31AM 20.8295 -77.8971 341° North  Level FlightAware Approximate
03:32AM 20.9470 -77.9395 341° North  Level FlightAware Approximate
03:33AM 21.0645 -77.9820 341° North  Level FlightAware Approximate
03:34AM 21.1820 -78.0245 341° North  Level FlightAware Approximate
03:35AM 21.2995 -78.0670 341° North  Level FlightAware Approximate
03:36AM 21.4174 -78.1098 341° North  Level FlightAware Approximate
03:37AM 21.5352 -78.1527 341° North  Level FlightAware Approximate
03:38AM 21.6531 -78.1956 341° North  Level FlightAware Approximate
03:39AM 21.7709 -78.2386 341° North  Level FlightAware Approximate
03:40AM 21.8887 -78.2816 341° North  Level FlightAware Approximate
03:41AM 22.0065 -78.3248 341° North  Level FlightAware Approximate
03:42AM 22.1243 -78.3680 341° North  Level FlightAware Approximate
03:43AM 22.2421 -78.4113 341° North  Level FlightAware Approximate
03:43AM 22.6192 -78.0539 341° North 459 528 36,000  Level Miami Center
03:44AM 22.3599 -78.4546 341° North  Level FlightAware Approximate
03:44AM 22.7294 -78.1044 337° Northwest 459 528 36,000  Level Miami Center
03:45AM 22.4777 -78.4980 341° North  Level FlightAware Approximate
03:45AM 22.8417 -78.1642 334° Northwest 445 512 36,000  Level Miami Center
03:46AM 22.5954 -78.5415 341° North  Level FlightAware Approximate
03:46AM 22.9622 -78.2283 334° Northwest 451 519 36,000  Level Miami Center
03:47AM 22.7132 -78.5851 341° North  Level FlightAware Approximate
03:47AM 23.0767 -78.2975 331° Northwest 451 519 36,000  Level Miami Center
03:48AM 22.8309 -78.6288 341° North  Level FlightAware Approximate
03:48AM 23.1828 -78.3506 335° Northwest 447 514 36,000  Level Miami Center
03:49AM 23.3053 -78.4086 336° Northwest 447 514 36,000  Level Miami Center
03:50AM 23.4303 -78.4464 345° North 465 535 36,000  Level Miami Center
03:51AM 23.5642 -78.4456 360° North 465 535 36,000  Level Miami Center
03:52AM 23.6853 -78.4403 North 475 547 36,000  Level Miami Center
03:53AM 23.8208 -78.4669 350° North 480 552 36,000  Level Miami Center
03:54AM 23.9519 -78.5164 341° North 480 552 36,000  Level Miami Center
03:55AM 24.0725 -78.5703 338° Northwest 480 552 36,000  Level Miami Center
03:56AM 24.1972 -78.6314 336° Northwest 475 547 36,000  Level Miami Center
03:57AM 24.3178 -78.6878 337° Northwest 475 547 36,000  Level Miami Center
03:58AM 24.4425 -78.7467 337° Northwest 480 552 36,000  Level Miami Center
03:59AM 24.5608 -78.7986 338° Northwest 475 547 36,000  Level Miami Center
04:01AM 24.7997 -78.9122 337° Northwest 469 540 36,000  Level Miami Center
04:02AM 24.9325 -78.9717 338° Northwest 469 540 36,000  Level Miami Center
04:03AM 25.0531 -79.0267 338° Northwest 464 534 36,000  Level Miami Center
04:04AM 25.1692 -79.0814 337° Northwest 464 534 36,000  Level Miami Center
04:05AM 25.2894 -79.1364 338° Northwest 459 528 36,000  Level Miami Center
04:06AM 25.4097 -79.1939 337° Northwest 459 528 36,000  Level Miami Center
04:07AM 25.5281 -79.2492 337° Northwest 459 528 36,000  Level Miami Center
04:08AM 25.6419 -79.3044 336° Northwest 454 522 36,000  Level Miami Center
04:09AM 25.7581 -79.3622 336° Northwest 454 522 36,000  Level Miami Center
04:10AM 25.8658 -79.4128 337° Northwest 454 522 36,000  Level Miami Center
04:11AM 25.9964 -79.4733 337° Northwest 459 528 36,000  Level Miami Center
04:12AM 26.1164 -79.5317 336° Northwest 459 528 36,000  Level Miami Center
04:13AM 26.2325 -79.5897 336° Northwest 454 522 36,000  Level Miami Center
04:14AM 26.3381 -79.6408 337° Northwest 454 522 36,000  Level Miami Center
04:15AM 26.4642 -79.7019 337° Northwest 454 522 36,000  Level Miami Center
04:16AM 26.5719 -79.7533 337° Northwest 454 522 36,000  Level Miami Center
04:17AM 26.7000 -79.8144 337° Northwest 455 524 36,000  Level Miami Center
04:18AM 26.8139 -79.8686 337° Northwest 455 524 36,000  Level Miami Center
04:19AM 26.9294 -79.9275 336° Northwest 455 524 36,000  Level Miami Center
04:20AM 27.0331 -79.9769 337° Northwest 455 524 36,000 -60 Level Miami Center
04:21AM 27.1569 -80.0408 335° Northwest 450 518 35,900  Descending Miami Center
04:22AM 27.2725 -80.0978 336° Northwest 450 518 36,000  Climbing Miami Center
04:23AM 27.3758 -80.1497 336° Northwest 450 518 36,000  Level Miami Center
04:24AM 27.4872 -80.2044 336° Northwest 450 518 36,000  Level Miami Center
04:25AM 27.5986 -80.2569 337° Northwest 445 512 36,000  Level Miami Center
04:26AM 27.7103 -80.3119 336° Northwest 440 506 36,000  Level Miami Center
04:27AM 27.8214 -80.3692 336° Northwest 440 506 36,000  Level Miami Center
04:28AM 27.9411 -80.4247 338° Northwest 435 501 36,000  Level Miami Center
04:29AM 28.0403 -80.4747 336° Northwest 435 501 36,000  Level Miami Center
04:30AM 28.1597 -80.5328 337° Northwest 435 501 36,000  Level Miami Center
04:31AM 28.2731 -80.5883 337° Northwest 435 501 36,000  Level Miami Center
04:33AM 28.5217 -80.7167 336° Northwest 427 491 36,000  Level Jacksonville Center
04:34AM 28.6292 -80.7733 335° Northwest 427 491 36,000  Level Jacksonville Center
04:35AM 28.7406 -80.8278 337° Northwest 422 486 36,000  Level Jacksonville Center
04:36AM 28.8500 -80.8825 336° Northwest 422 486 36,000  Level Jacksonville Center
04:37AM 28.9594 -80.9372 336° Northwest 422 486 36,000  Level Jacksonville Center
04:38AM 29.0689 -80.9944 335° Northwest 427 491 36,000  Level Jacksonville Center
04:39AM 29.1781 -81.0517 335° Northwest 421 484 36,000  Level Jacksonville Center
04:40AM 29.2875 -81.1044 337° Northwest 419 482 36,000  Level Jacksonville Center
04:41AM 29.3925 -81.1644 334° Northwest 425 489 36,000  Level Jacksonville Center
04:42AM 29.4853 -81.2297 329° Northwest 425 489 36,000  Level Jacksonville Center
04:43AM 29.5883 -81.2925 332° Northwest 425 489 36,000  Level Jacksonville Center
04:44AM 29.6936 -81.3578 332° Northwest 425 489 36,000  Level Jacksonville Center
04:45AM 29.7986 -81.4206 333° Northwest 425 489 36,000  Level Jacksonville Center
04:46AM 29.9039 -81.4836 333° Northwest 425 489 36,000  Level Jacksonville Center
04:47AM 30.0067 -81.5447 333° Northwest 420 483 36,000  Level Jacksonville Center
04:48AM 30.1097 -81.6103 331° Northwest 420 483 36,000  Level Jacksonville Center
04:49AM 30.2086 -81.6836 327° Northwest 420 483 36,000  Level Jacksonville Center
04:50AM 30.3033 -81.7569 326° Northwest 420 483 36,000  Level Jacksonville Center
04:51AM 30.4019 -81.8328 326° Northwest 420 483 36,000  Level Jacksonville Center
04:52AM 30.4967 -81.9042 327° Northwest 420 483 36,000  Level Jacksonville Center
04:53AM 30.6058 -81.9947 324° Northwest 431 496 36,000  Level Jacksonville Center
04:54AM 30.7003 -82.0686 326° Northwest 431 496 36,000  Level Jacksonville Center
04:55AM 30.7947 -82.1428 326° Northwest 420 483 36,000  Level Jacksonville Center
04:56AM 30.8889 -82.2147 327° Northwest 415 478 36,000  Level Jacksonville Center
04:58AM 31.0231 -82.3164 327° Northwest 410 472 36,000  Level Atlanta Center
04:59AM 31.1158 -82.3872 327° Northwest 404 465 36,000  Level Atlanta Center
05:00AM 31.2064 -82.4608 325° Northwest 399 459 36,000  Level Atlanta Center
05:01AM 31.2969 -82.5347 325° Northwest 399 459 36,000  Level Atlanta Center
05:02AM 31.3897 -82.6061 327° Northwest 404 465 36,000  Level Atlanta Center
05:03AM 31.4783 -82.6803 324° Northwest 404 465 36,000  Level Atlanta Center
05:04AM 31.5708 -82.7519 327° Northwest 404 465 36,000  Level Atlanta Center
05:05AM 31.6656 -82.8261 326° Northwest 404 465 36,000  Level Atlanta Center
05:06AM 31.7558 -82.8983 326° Northwest 404 465 36,000  Level Atlanta Center
05:07AM 31.8483 -82.9753 325° Northwest 404 465 36,000  Level Atlanta Center
05:08AM 31.9431 -83.0500 326° Northwest 404 465 36,000  Level Atlanta Center
05:09AM 32.0353 -83.1225 326° Northwest 404 465 36,000 -60 Level Atlanta Center
05:10AM 32.1278 -83.1975 326° Northwest 404 465 35,900 -780 Descending Atlanta Center
05:11AM 32.2222 -83.2728 326° Northwest 404 465 34,500 -1,740 Descending Atlanta Center
05:12AM 32.3144 -83.3483 325° Northwest 404 465 32,500 -2,100 Descending Atlanta Center
05:13AM 32.4236 -83.4383 325° Northwest 417 480 30,300 -2,700 Descending Atlanta Center
05:14AM 32.5219 -83.5192 325° Northwest 423 487 27,100 -3,060 Descending Atlanta Center
05:15AM 32.6203 -83.6000 325° Northwest 428 493 24,200 -2,880 Descending Atlanta Center
05:16AM 32.7144 -83.6783 325° Northwest 428 493 21,400 -2,760 Descending Atlanta Center
05:17AM 32.8086 -83.7522 327° Northwest 428 493 18,700 -2,700 Descending Atlanta Center
05:18AM 32.9008 -83.8333 324° Northwest 422 486 16,100 -2,640 Descending Atlanta Center
05:19AM 32.9906 -83.9050 326° Northwest 410 472 13,500 -2,460 Descending Atlanta Center
05:20AM 33.0783 -83.9769 326° Northwest 394 453 11,200 -1,560 Descending Atlanta Center
05:21AM 33.1597 -84.0414 326° Northwest 370 426 10,400 -660 Descending Atlanta Center
05:22AM 33.2411 -84.0636 347° North 315 362 9,900 -900 Descending Atlanta Center
05:23AM 33.3183 -84.0811 349° North 288 331 8,700 -1,200 Descending Atlanta Center
05:24AM 33.3914 -84.0986 349° North 275 316 7,600 -1,080 Descending Atlanta Center
05:25AM 33.4603 -84.1186 346° North 260 299 6,600 -1,200 Descending Atlanta Center
05:26AM 33.5000 -84.1333 343° North 237 273 5,600 -1,380 Descending Atlanta TRACON
05:27AM 33.5667 -84.1333 360° North 222 255 4,300 -1,200 Descending Atlanta TRACON
05:27AM 33.6167 -84.1500 344° North 178 205 3,400 -660 Descending Atlanta TRACON
05:29AM 33.6500 -84.2000 309° West 171 197 3,000 -240 Descending Atlanta TRACON
05:30AM 33.6500 -84.2500 270° West 175 201 3,000  Level Atlanta TRACON